sensor_id;sensor_type;location;lat;lon;timestamp;P1;durP1;ratioP1;P2;durP2;ratioP2
7783;SDS011;19359;51.402;6.778;2022-07-29T00:01:25;4.05;;;0.80;;
7783;SDS011;19359;51.402;6.778;2022-07-29T00:03:52;8.88;;;1.00;;
7783;SDS011;19359;51.402;6.778;2022-07-29T00:06:19;3.60;;;1.08;;
7783;SDS011;19359;51.402;6.778;2022-07-29T00:08:46;3.80;;;1.00;;
7783;SDS011;19359;51.402;6.778;2022-07-29T00:11:13;3.60;;;0.85;;
7783;SDS011;19359;51.402;6.778;2022-07-29T00:13:39;3.40;;;0.52;;
7783;SDS011;19359;51.402;6.778;2022-07-29T00:16:06;6.43;;;0.85;;
7783;SDS011;19359;51.402;6.778;2022-07-29T00:18:35;0.70;;;0.63;;
7783;SDS011;19359;51.402;6.778;2022-07-29T00:21:01;2.50;;;0.60;;
7783;SDS011;19359;51.402;6.778;2022-07-29T00:23:28;5.60;;;0.70;;
7783;SDS011;19359;51.402;6.778;2022-07-29T00:25:55;5.30;;;0.80;;
7783;SDS011;19359;51.402;6.778;2022-07-29T00:28:22;2.42;;;1.13;;
7783;SDS011;19359;51.402;6.778;2022-07-29T00:30:49;4.40;;;0.77;;
7783;SDS011;19359;51.402;6.778;2022-07-29T00:33:16;5.97;;;0.80;;
7783;SDS011;19359;51.402;6.778;2022-07-29T00:35:44;1.40;;;0.82;;
7783;SDS011;19359;51.402;6.778;2022-07-29T00:38:10;1.98;;;0.60;;
7783;SDS011;19359;51.402;6.778;2022-07-29T00:40:39;1.70;;;0.70;;
7783;SDS011;19359;51.402;6.778;2022-07-29T00:43:06;2.10;;;0.75;;
7783;SDS011;19359;51.402;6.778;2022-07-29T00:45:33;6.85;;;0.88;;
7783;SDS011;19359;51.402;6.778;2022-07-29T00:48:00;1.38;;;0.55;;
7783;SDS011;19359;51.402;6.778;2022-07-29T00:50:28;5.68;;;0.60;;
7783;SDS011;19359;51.402;6.778;2022-07-29T00:52:57;1.35;;;0.73;;
7783;SDS011;19359;51.402;6.778;2022-07-29T00:55:24;4.80;;;1.08;;
7783;SDS011;19359;51.402;6.778;2022-07-29T00:57:51;1.95;;;0.82;;
7783;SDS011;19359;51.402;6.778;2022-07-29T01:00:20;3.30;;;0.50;;
7783;SDS011;19359;51.402;6.778;2022-07-29T01:02:48;4.63;;;0.80;;
7783;SDS011;19359;51.402;6.778;2022-07-29T01:05:16;4.30;;;0.65;;
7783;SDS011;19359;51.402;6.778;2022-07-29T01:07:45;4.13;;;0.68;;
7783;SDS011;19359;51.402;6.778;2022-07-29T01:10:15;6.10;;;0.60;;
7783;SDS011;19359;51.402;6.778;2022-07-29T01:12:43;2.40;;;0.55;;
7783;SDS011;19359;51.402;6.778;2022-07-29T01:15:12;3.15;;;0.75;;
7783;SDS011;19359;51.402;6.778;2022-07-29T01:17:41;4.55;;;0.75;;
7783;SDS011;19359;51.402;6.778;2022-07-29T01:20:12;1.90;;;1.33;;
7783;SDS011;19359;51.402;6.778;2022-07-29T01:22:52;3.97;;;0.60;;
7783;SDS011;19359;51.402;6.778;2022-07-29T01:25:44;15.80;;;1.25;;
7783;SDS011;19359;51.402;6.778;2022-07-29T01:31:09;0.77;;;0.50;;
7783;SDS011;19359;51.402;6.778;2022-07-29T01:33:41;2.72;;;0.88;;
7783;SDS011;19359;51.402;6.778;2022-07-29T01:36:17;3.08;;;0.80;;
7783;SDS011;19359;51.402;6.778;2022-07-29T01:38:53;2.35;;;0.95;;
7783;SDS011;19359;51.402;6.778;2022-07-29T01:41:25;2.28;;;0.52;;
7783;SDS011;19359;51.402;6.778;2022-07-29T01:43:59;4.25;;;0.70;;
7783;SDS011;19359;51.402;6.778;2022-07-29T01:46:29;9.07;;;0.50;;
7783;SDS011;19359;51.402;6.778;2022-07-29T01:49:02;2.33;;;0.63;;
7783;SDS011;19359;51.402;6.778;2022-07-29T01:51:35;1.40;;;0.70;;
7783;SDS011;19359;51.402;6.778;2022-07-29T01:54:10;10.52;;;0.90;;
7783;SDS011;19359;51.402;6.778;2022-07-29T01:56:42;1.00;;;0.50;;
7783;SDS011;19359;51.402;6.778;2022-07-29T01:59:12;3.28;;;1.08;;
7783;SDS011;19359;51.402;6.778;2022-07-29T02:01:39;6.13;;;0.70;;
7783;SDS011;19359;51.402;6.778;2022-07-29T02:04:10;3.30;;;0.63;;
7783;SDS011;19359;51.402;6.778;2022-07-29T02:06:38;1.73;;;0.90;;
7783;SDS011;19359;51.402;6.778;2022-07-29T02:09:08;7.07;;;0.70;;
7783;SDS011;19359;51.402;6.778;2022-07-29T02:11:38;2.08;;;0.88;;
7783;SDS011;19359;51.402;6.778;2022-07-29T02:14:07;2.70;;;0.82;;
7783;SDS011;19359;51.402;6.778;2022-07-29T02:16:38;6.50;;;0.60;;
7783;SDS011;19359;51.402;6.778;2022-07-29T02:19:07;5.75;;;1.00;;
7783;SDS011;19359;51.402;6.778;2022-07-29T02:21:37;10.88;;;0.80;;
7783;SDS011;19359;51.402;6.778;2022-07-29T02:24:05;7.55;;;0.90;;
7783;SDS011;19359;51.402;6.778;2022-07-29T02:26:34;1.27;;;0.90;;
7783;SDS011;19359;51.402;6.778;2022-07-29T02:29:01;1.38;;;0.80;;
7783;SDS011;19359;51.402;6.778;2022-07-29T02:31:29;1.50;;;0.70;;
7783;SDS011;19359;51.402;6.778;2022-07-29T02:34:01;2.80;;;0.60;;
7783;SDS011;19359;51.402;6.778;2022-07-29T02:36:29;4.63;;;1.02;;
7783;SDS011;19359;51.402;6.778;2022-07-29T02:38:57;1.55;;;0.70;;
7783;SDS011;19359;51.402;6.778;2022-07-29T02:41:26;1.38;;;0.60;;
7783;SDS011;19359;51.402;6.778;2022-07-29T02:43:55;2.47;;;0.63;;
7783;SDS011;19359;51.402;6.778;2022-07-29T02:46:25;2.30;;;0.60;;
7783;SDS011;19359;51.402;6.778;2022-07-29T02:48:58;4.05;;;0.93;;
7783;SDS011;19359;51.402;6.778;2022-07-29T02:51:32;1.50;;;0.63;;
7783;SDS011;19359;51.402;6.778;2022-07-29T02:54:06;4.93;;;0.75;;
7783;SDS011;19359;51.402;6.778;2022-07-29T02:56:35;1.75;;;0.95;;
7783;SDS011;19359;51.402;6.778;2022-07-29T02:59:06;3.65;;;0.57;;
7783;SDS011;19359;51.402;6.778;2022-07-29T03:01:36;4.10;;;1.05;;
7783;SDS011;19359;51.402;6.778;2022-07-29T03:04:09;2.47;;;0.70;;
7783;SDS011;19359;51.402;6.778;2022-07-29T03:06:39;4.82;;;0.60;;
7783;SDS011;19359;51.402;6.778;2022-07-29T03:09:08;1.05;;;0.80;;
7783;SDS011;19359;51.402;6.778;2022-07-29T03:11:37;3.50;;;0.50;;
7783;SDS011;19359;51.402;6.778;2022-07-29T03:14:05;0.90;;;0.40;;
7783;SDS011;19359;51.402;6.778;2022-07-29T03:16:33;1.65;;;0.57;;
7783;SDS011;19359;51.402;6.778;2022-07-29T03:19:02;4.13;;;0.52;;
7783;SDS011;19359;51.402;6.778;2022-07-29T03:21:31;1.13;;;0.50;;
7783;SDS011;19359;51.402;6.778;2022-07-29T03:23:58;2.67;;;0.77;;
7783;SDS011;19359;51.402;6.778;2022-07-29T03:26:25;3.50;;;0.70;;
7783;SDS011;19359;51.402;6.778;2022-07-29T03:28:52;4.18;;;0.65;;
7783;SDS011;19359;51.402;6.778;2022-07-29T03:31:19;3.30;;;0.60;;
7783;SDS011;19359;51.402;6.778;2022-07-29T03:33:45;3.55;;;1.05;;
7783;SDS011;19359;51.402;6.778;2022-07-29T03:36:12;3.70;;;0.63;;
7783;SDS011;19359;51.402;6.778;2022-07-29T03:38:41;8.27;;;0.93;;
7783;SDS011;19359;51.402;6.778;2022-07-29T03:41:10;4.75;;;1.35;;
7783;SDS011;19359;51.402;6.778;2022-07-29T03:43:39;1.60;;;0.77;;
7783;SDS011;19359;51.402;6.778;2022-07-29T03:46:07;3.05;;;1.00;;
7783;SDS011;19359;51.402;6.778;2022-07-29T03:48:36;0.73;;;0.47;;
7783;SDS011;19359;51.402;6.778;2022-07-29T03:51:07;6.18;;;0.95;;
7783;SDS011;19359;51.402;6.778;2022-07-29T03:53:34;1.75;;;0.88;;
7783;SDS011;19359;51.402;6.778;2022-07-29T03:56:03;4.75;;;0.88;;
7783;SDS011;19359;51.402;6.778;2022-07-29T03:58:32;3.42;;;0.93;;
7783;SDS011;19359;51.402;6.778;2022-07-29T04:01:00;3.22;;;0.82;;
7783;SDS011;19359;51.402;6.778;2022-07-29T04:03:27;5.60;;;0.70;;
7783;SDS011;19359;51.402;6.778;2022-07-29T04:05:57;1.85;;;0.80;;
7783;SDS011;19359;51.402;6.778;2022-07-29T04:08:25;5.28;;;0.90;;
7783;SDS011;19359;51.402;6.778;2022-07-29T04:10:52;8.80;;;1.20;;
7783;SDS011;19359;51.402;6.778;2022-07-29T04:13:20;7.13;;;1.15;;
7783;SDS011;19359;51.402;6.778;2022-07-29T04:15:47;4.28;;;0.70;;
7783;SDS011;19359;51.402;6.778;2022-07-29T04:18:14;4.47;;;1.15;;
7783;SDS011;19359;51.402;6.778;2022-07-29T04:20:40;2.20;;;1.00;;
7783;SDS011;19359;51.402;6.778;2022-07-29T04:23:07;3.70;;;1.08;;
7783;SDS011;19359;51.402;6.778;2022-07-29T04:25:36;1.75;;;1.23;;
7783;SDS011;19359;51.402;6.778;2022-07-29T04:28:04;7.25;;;1.45;;
7783;SDS011;19359;51.402;6.778;2022-07-29T04:30:33;6.10;;;1.27;;
7783;SDS011;19359;51.402;6.778;2022-07-29T04:33:00;2.85;;;1.70;;
7783;SDS011;19359;51.402;6.778;2022-07-29T04:35:29;7.57;;;1.45;;
7783;SDS011;19359;51.402;6.778;2022-07-29T04:37:56;2.65;;;1.77;;
7783;SDS011;19359;51.402;6.778;2022-07-29T04:40:23;3.38;;;1.83;;
7783;SDS011;19359;51.402;6.778;2022-07-29T04:42:50;8.38;;;2.63;;
7783;SDS011;19359;51.402;6.778;2022-07-29T04:45:17;7.93;;;2.40;;
7783;SDS011;19359;51.402;6.778;2022-07-29T04:47:45;4.95;;;2.20;;
7783;SDS011;19359;51.402;6.778;2022-07-29T04:50:12;3.15;;;1.75;;
7783;SDS011;19359;51.402;6.778;2022-07-29T04:52:39;7.15;;;1.60;;
7783;SDS011;19359;51.402;6.778;2022-07-29T04:55:06;3.03;;;1.60;;
7783;SDS011;19359;51.402;6.778;2022-07-29T04:57:33;9.60;;;1.85;;
7783;SDS011;19359;51.402;6.778;2022-07-29T05:00:00;6.38;;;1.50;;
7783;SDS011;19359;51.402;6.778;2022-07-29T05:02:27;1.88;;;1.70;;
7783;SDS011;19359;51.402;6.778;2022-07-29T05:04:55;1.02;;;1.00;;
7783;SDS011;19359;51.402;6.778;2022-07-29T05:07:22;2.25;;;1.42;;
7783;SDS011;19359;51.402;6.778;2022-07-29T05:09:48;2.15;;;0.93;;
7783;SDS011;19359;51.402;6.778;2022-07-29T05:12:15;2.47;;;1.30;;
7783;SDS011;19359;51.402;6.778;2022-07-29T05:14:42;2.45;;;1.23;;
7783;SDS011;19359;51.402;6.778;2022-07-29T05:17:09;7.35;;;1.75;;
7783;SDS011;19359;51.402;6.778;2022-07-29T05:19:35;4.43;;;1.30;;
7783;SDS011;19359;51.402;6.778;2022-07-29T05:22:03;2.05;;;1.30;;
7783;SDS011;19359;51.402;6.778;2022-07-29T05:24:30;6.35;;;2.50;;
7783;SDS011;19359;51.402;6.778;2022-07-29T05:26:57;5.38;;;1.77;;
7783;SDS011;19359;51.402;6.778;2022-07-29T05:29:24;4.28;;;1.48;;
7783;SDS011;19359;51.402;6.778;2022-07-29T05:31:51;3.67;;;1.38;;
7783;SDS011;19359;51.402;6.778;2022-07-29T05:34:18;5.18;;;1.80;;
7783;SDS011;19359;51.402;6.778;2022-07-29T05:36:45;3.38;;;1.20;;
7783;SDS011;19359;51.402;6.778;2022-07-29T05:39:13;4.15;;;1.30;;
7783;SDS011;19359;51.402;6.778;2022-07-29T05:41:40;3.63;;;1.10;;
7783;SDS011;19359;51.402;6.778;2022-07-29T05:44:06;2.10;;;1.00;;
7783;SDS011;19359;51.402;6.778;2022-07-29T05:46:33;1.75;;;1.15;;
7783;SDS011;19359;51.402;6.778;2022-07-29T05:49:00;2.85;;;1.20;;
7783;SDS011;19359;51.402;6.778;2022-07-29T05:51:27;5.47;;;1.33;;
7783;SDS011;19359;51.402;6.778;2022-07-29T05:53:55;9.30;;;1.67;;
7783;SDS011;19359;51.402;6.778;2022-07-29T05:56:23;2.85;;;1.52;;
7783;SDS011;19359;51.402;6.778;2022-07-29T05:58:50;3.95;;;1.42;;
7783;SDS011;19359;51.402;6.778;2022-07-29T06:01:17;6.07;;;1.27;;
7783;SDS011;19359;51.402;6.778;2022-07-29T06:03:43;3.45;;;1.20;;
7783;SDS011;19359;51.402;6.778;2022-07-29T06:06:10;3.35;;;1.08;;
7783;SDS011;19359;51.402;6.778;2022-07-29T06:08:38;1.88;;;1.60;;
7783;SDS011;19359;51.402;6.778;2022-07-29T06:11:05;3.80;;;1.63;;
7783;SDS011;19359;51.402;6.778;2022-07-29T06:13:34;2.45;;;1.70;;
7783;SDS011;19359;51.402;6.778;2022-07-29T06:16:01;6.43;;;1.35;;
7783;SDS011;19359;51.402;6.778;2022-07-29T06:18:29;6.57;;;1.92;;
7783;SDS011;19359;51.402;6.778;2022-07-29T06:20:56;1.67;;;1.33;;
7783;SDS011;19359;51.402;6.778;2022-07-29T06:23:22;3.50;;;2.00;;
7783;SDS011;19359;51.402;6.778;2022-07-29T06:25:49;5.35;;;1.38;;
7783;SDS011;19359;51.402;6.778;2022-07-29T06:28:16;2.08;;;1.83;;
7783;SDS011;19359;51.402;6.778;2022-07-29T06:30:44;2.15;;;1.65;;
7783;SDS011;19359;51.402;6.778;2022-07-29T06:33:15;6.22;;;1.85;;
7783;SDS011;19359;51.402;6.778;2022-07-29T06:35:42;4.80;;;2.10;;
7783;SDS011;19359;51.402;6.778;2022-07-29T06:38:10;1.70;;;1.60;;
7783;SDS011;19359;51.402;6.778;2022-07-29T06:40:40;3.15;;;1.88;;
7783;SDS011;19359;51.402;6.778;2022-07-29T06:43:25;11.85;;;2.22;;
7783;SDS011;19359;51.402;6.778;2022-07-29T06:45:53;1.95;;;1.55;;
7783;SDS011;19359;51.402;6.778;2022-07-29T06:48:20;5.50;;;1.80;;
7783;SDS011;19359;51.402;6.778;2022-07-29T06:50:47;1.67;;;1.58;;
7783;SDS011;19359;51.402;6.778;2022-07-29T06:53:14;2.35;;;1.67;;
7783;SDS011;19359;51.402;6.778;2022-07-29T06:55:41;3.58;;;1.90;;
7783;SDS011;19359;51.402;6.778;2022-07-29T06:58:07;6.40;;;2.35;;
7783;SDS011;19359;51.402;6.778;2022-07-29T07:00:35;3.50;;;1.90;;
7783;SDS011;19359;51.402;6.778;2022-07-29T07:03:04;3.38;;;2.00;;
7783;SDS011;19359;51.402;6.778;2022-07-29T07:05:31;2.47;;;2.13;;
7783;SDS011;19359;51.402;6.778;2022-07-29T07:07:57;5.13;;;2.22;;
7783;SDS011;19359;51.402;6.778;2022-07-29T07:10:24;7.63;;;2.45;;
7783;SDS011;19359;51.402;6.778;2022-07-29T07:12:51;3.20;;;2.10;;
7783;SDS011;19359;51.402;6.778;2022-07-29T07:15:18;8.63;;;2.33;;
7783;SDS011;19359;51.402;6.778;2022-07-29T07:17:46;7.28;;;3.50;;
7783;SDS011;19359;51.402;6.778;2022-07-29T07:20:15;3.38;;;1.85;;
7783;SDS011;19359;51.402;6.778;2022-07-29T07:22:42;9.63;;;2.20;;
7783;SDS011;19359;51.402;6.778;2022-07-29T07:25:10;8.25;;;2.13;;
7783;SDS011;19359;51.402;6.778;2022-07-29T07:27:37;1.95;;;1.80;;
7783;SDS011;19359;51.402;6.778;2022-07-29T07:30:04;2.80;;;2.10;;
7783;SDS011;19359;51.402;6.778;2022-07-29T07:32:32;2.97;;;2.00;;
7783;SDS011;19359;51.402;6.778;2022-07-29T07:34:59;5.80;;;2.03;;
7783;SDS011;19359;51.402;6.778;2022-07-29T07:37:27;7.05;;;2.30;;
7783;SDS011;19359;51.402;6.778;2022-07-29T07:39:54;5.03;;;2.05;;
7783;SDS011;19359;51.402;6.778;2022-07-29T07:42:21;2.38;;;2.13;;
7783;SDS011;19359;51.402;6.778;2022-07-29T07:44:48;3.17;;;1.73;;
7783;SDS011;19359;51.402;6.778;2022-07-29T07:47:14;3.25;;;1.90;;
7783;SDS011;19359;51.402;6.778;2022-07-29T07:49:44;2.22;;;2.00;;
7783;SDS011;19359;51.402;6.778;2022-07-29T07:52:11;4.13;;;2.92;;
7783;SDS011;19359;51.402;6.778;2022-07-29T07:54:39;3.40;;;2.65;;
7783;SDS011;19359;51.402;6.778;2022-07-29T07:57:06;2.55;;;2.40;;
7783;SDS011;19359;51.402;6.778;2022-07-29T07:59:33;7.97;;;2.80;;
7783;SDS011;19359;51.402;6.778;2022-07-29T08:01:59;9.63;;;2.70;;
7783;SDS011;19359;51.402;6.778;2022-07-29T08:04:27;2.88;;;2.20;;
7783;SDS011;19359;51.402;6.778;2022-07-29T08:06:53;3.28;;;2.15;;
7783;SDS011;19359;51.402;6.778;2022-07-29T08:09:20;4.20;;;2.35;;
7783;SDS011;19359;51.402;6.778;2022-07-29T08:11:49;13.63;;;2.70;;
7783;SDS011;19359;51.402;6.778;2022-07-29T08:14:15;5.05;;;2.25;;
7783;SDS011;19359;51.402;6.778;2022-07-29T08:16:42;2.88;;;2.53;;
7783;SDS011;19359;51.402;6.778;2022-07-29T08:19:09;4.13;;;2.60;;
7783;SDS011;19359;51.402;6.778;2022-07-29T08:21:36;3.47;;;2.85;;
7783;SDS011;19359;51.402;6.778;2022-07-29T08:24:03;7.45;;;2.40;;
7783;SDS011;19359;51.402;6.778;2022-07-29T08:26:50;5.72;;;2.67;;
7783;SDS011;19359;51.402;6.778;2022-07-29T08:29:16;7.53;;;2.53;;
7783;SDS011;19359;51.402;6.778;2022-07-29T08:31:43;4.13;;;2.38;;
7783;SDS011;19359;51.402;6.778;2022-07-29T08:34:10;4.38;;;3.08;;
7783;SDS011;19359;51.402;6.778;2022-07-29T08:36:37;6.88;;;2.80;;
7783;SDS011;19359;51.402;6.778;2022-07-29T08:39:04;3.38;;;3.03;;
7783;SDS011;19359;51.402;6.778;2022-07-29T08:41:31;3.17;;;2.50;;
7783;SDS011;19359;51.402;6.778;2022-07-29T08:43:59;5.28;;;3.25;;
7783;SDS011;19359;51.402;6.778;2022-07-29T08:46:26;4.80;;;3.08;;
7783;SDS011;19359;51.402;6.778;2022-07-29T08:48:53;5.80;;;3.35;;
7783;SDS011;19359;51.402;6.778;2022-07-29T08:51:21;6.20;;;3.00;;
7783;SDS011;19359;51.402;6.778;2022-07-29T08:53:50;6.47;;;2.03;;
7783;SDS011;19359;51.402;6.778;2022-07-29T08:56:17;4.80;;;2.65;;
7783;SDS011;19359;51.402;6.778;2022-07-29T08:58:45;6.05;;;3.33;;
7783;SDS011;19359;51.402;6.778;2022-07-29T09:01:14;7.40;;;3.05;;
7783;SDS011;19359;51.402;6.778;2022-07-29T09:03:43;8.52;;;3.17;;
7783;SDS011;19359;51.402;6.778;2022-07-29T09:06:12;10.25;;;2.55;;
7783;SDS011;19359;51.402;6.778;2022-07-29T09:08:39;7.38;;;3.13;;
7783;SDS011;19359;51.402;6.778;2022-07-29T09:11:06;9.10;;;3.22;;
7783;SDS011;19359;51.402;6.778;2022-07-29T09:13:33;10.15;;;3.30;;
7783;SDS011;19359;51.402;6.778;2022-07-29T09:16:00;12.05;;;3.35;;
7783;SDS011;19359;51.402;6.778;2022-07-29T09:18:35;10.07;;;4.15;;
7783;SDS011;19359;51.402;6.778;2022-07-29T09:21:03;8.27;;;3.47;;
7783;SDS011;19359;51.402;6.778;2022-07-29T09:24:00;7.88;;;3.08;;
7783;SDS011;19359;51.402;6.778;2022-07-29T09:26:30;9.45;;;3.78;;
7783;SDS011;19359;51.402;6.778;2022-07-29T09:28:58;10.07;;;3.85;;
7783;SDS011;19359;51.402;6.778;2022-07-29T09:31:31;7.93;;;4.30;;
7783;SDS011;19359;51.402;6.778;2022-07-29T09:34:01;8.88;;;4.47;;
7783;SDS011;19359;51.402;6.778;2022-07-29T09:36:28;9.55;;;4.85;;
7783;SDS011;19359;51.402;6.778;2022-07-29T09:38:58;3.85;;;3.50;;
7783;SDS011;19359;51.402;6.778;2022-07-29T09:41:26;11.75;;;5.05;;
7783;SDS011;19359;51.402;6.778;2022-07-29T09:43:54;12.68;;;4.32;;
7783;SDS011;19359;51.402;6.778;2022-07-29T09:46:21;6.53;;;4.18;;
7783;SDS011;19359;51.402;6.778;2022-07-29T09:49:09;11.73;;;4.13;;
7783;SDS011;19359;51.402;6.778;2022-07-29T09:51:37;12.43;;;3.95;;
7783;SDS011;19359;51.402;6.778;2022-07-29T09:56:47;6.35;;;4.32;;
7783;SDS011;19359;51.402;6.778;2022-07-29T09:59:14;3.97;;;3.53;;
7783;SDS011;19359;51.402;6.778;2022-07-29T10:01:41;7.82;;;3.85;;
7783;SDS011;19359;51.402;6.778;2022-07-29T10:04:09;8.57;;;3.72;;
7783;SDS011;19359;51.402;6.778;2022-07-29T10:06:37;6.63;;;4.68;;
7783;SDS011;19359;51.402;6.778;2022-07-29T10:09:22;4.50;;;3.63;;
7783;SDS011;19359;51.402;6.778;2022-07-29T10:12:02;12.95;;;3.95;;
7783;SDS011;19359;51.402;6.778;2022-07-29T10:14:30;11.80;;;4.18;;
7783;SDS011;19359;51.402;6.778;2022-07-29T10:16:58;11.77;;;3.78;;
7783;SDS011;19359;51.402;6.778;2022-07-29T10:19:27;5.85;;;3.45;;
7783;SDS011;19359;51.402;6.778;2022-07-29T10:21:55;3.88;;;3.42;;
7783;SDS011;19359;51.402;6.778;2022-07-29T10:24:23;5.70;;;4.05;;
7783;SDS011;19359;51.402;6.778;2022-07-29T10:26:51;7.97;;;3.72;;
7783;SDS011;19359;51.402;6.778;2022-07-29T10:29:20;4.22;;;3.33;;
7783;SDS011;19359;51.402;6.778;2022-07-29T10:31:49;5.25;;;3.40;;
7783;SDS011;19359;51.402;6.778;2022-07-29T10:34:23;5.32;;;3.28;;
7783;SDS011;19359;51.402;6.778;2022-07-29T10:37:03;3.58;;;3.28;;
7783;SDS011;19359;51.402;6.778;2022-07-29T10:39:41;6.28;;;2.58;;
7783;SDS011;19359;51.402;6.778;2022-07-29T10:42:18;5.53;;;2.85;;
7783;SDS011;19359;51.402;6.778;2022-07-29T10:44:48;7.22;;;3.28;;
7783;SDS011;19359;51.402;6.778;2022-07-29T10:47:21;7.43;;;2.30;;
7783;SDS011;19359;51.402;6.778;2022-07-29T10:49:56;4.13;;;2.28;;
7783;SDS011;19359;51.402;6.778;2022-07-29T10:52:24;8.95;;;2.03;;
7783;SDS011;19359;51.402;6.778;2022-07-29T10:58:10;8.38;;;2.30;;
7783;SDS011;19359;51.402;6.778;2022-07-29T11:00:38;7.53;;;2.22;;
7783;SDS011;19359;51.402;6.778;2022-07-29T11:03:05;3.78;;;1.40;;
7783;SDS011;19359;51.402;6.778;2022-07-29T11:08:23;2.55;;;1.80;;
7783;SDS011;19359;51.402;6.778;2022-07-29T11:10:51;10.38;;;2.33;;
7783;SDS011;19359;51.402;6.778;2022-07-29T11:16:12;2.85;;;1.90;;
7783;SDS011;19359;51.402;6.778;2022-07-29T11:21:46;5.80;;;2.70;;
7783;SDS011;19359;51.402;6.778;2022-07-29T11:24:15;5.97;;;1.80;;
7783;SDS011;19359;51.402;6.778;2022-07-29T11:26:42;9.57;;;2.25;;
7783;SDS011;19359;51.402;6.778;2022-07-29T11:29:17;6.63;;;1.80;;
7783;SDS011;19359;51.402;6.778;2022-07-29T11:31:48;2.58;;;1.60;;
7783;SDS011;19359;51.402;6.778;2022-07-29T11:34:23;2.78;;;1.20;;
7783;SDS011;19359;51.402;6.778;2022-07-29T11:42:41;4.72;;;1.33;;
7783;SDS011;19359;51.402;6.778;2022-07-29T11:45:15;5.03;;;1.75;;
7783;SDS011;19359;51.402;6.778;2022-07-29T11:47:48;6.55;;;1.88;;
7783;SDS011;19359;51.402;6.778;2022-07-29T11:50:17;6.80;;;1.83;;
7783;SDS011;19359;51.402;6.778;2022-07-29T11:52:55;5.65;;;2.05;;
7783;SDS011;19359;51.402;6.778;2022-07-29T11:55:23;4.15;;;1.73;;
7783;SDS011;19359;51.402;6.778;2022-07-29T11:57:51;13.23;;;2.20;;
7783;SDS011;19359;51.402;6.778;2022-07-29T12:00:23;8.10;;;2.17;;
7783;SDS011;19359;51.402;6.778;2022-07-29T12:02:56;2.78;;;1.92;;
7783;SDS011;19359;51.402;6.778;2022-07-29T12:05:33;7.95;;;2.13;;
7783;SDS011;19359;51.402;6.778;2022-07-29T12:08:14;11.50;;;3.47;;
7783;SDS011;19359;51.402;6.778;2022-07-29T12:10:44;7.40;;;2.47;;
7783;SDS011;19359;51.402;6.778;2022-07-29T12:13:12;8.68;;;1.83;;
7783;SDS011;19359;51.402;6.778;2022-07-29T12:15:39;7.43;;;2.55;;
7783;SDS011;19359;51.402;6.778;2022-07-29T12:20:56;7.70;;;3.13;;
7783;SDS011;19359;51.402;6.778;2022-07-29T12:23:25;11.32;;;3.22;;
7783;SDS011;19359;51.402;6.778;2022-07-29T12:25:52;7.82;;;3.38;;
7783;SDS011;19359;51.402;6.778;2022-07-29T12:28:18;8.38;;;2.67;;
7783;SDS011;19359;51.402;6.778;2022-07-29T12:30:47;4.85;;;2.60;;
7783;SDS011;19359;51.402;6.778;2022-07-29T12:33:19;7.55;;;3.10;;
7783;SDS011;19359;51.402;6.778;2022-07-29T12:35:48;11.38;;;3.08;;
7783;SDS011;19359;51.402;6.778;2022-07-29T12:38:17;6.80;;;2.72;;
7783;SDS011;19359;51.402;6.778;2022-07-29T12:40:46;5.18;;;2.28;;
7783;SDS011;19359;51.402;6.778;2022-07-29T12:43:14;3.75;;;2.35;;
7783;SDS011;19359;51.402;6.778;2022-07-29T12:45:43;7.75;;;2.22;;
7783;SDS011;19359;51.402;6.778;2022-07-29T12:48:11;8.13;;;2.35;;
7783;SDS011;19359;51.402;6.778;2022-07-29T12:50:54;5.55;;;2.00;;
7783;SDS011;19359;51.402;6.778;2022-07-29T12:53:22;3.47;;;1.67;;
7783;SDS011;19359;51.402;6.778;2022-07-29T12:55:51;3.15;;;2.38;;
7783;SDS011;19359;51.402;6.778;2022-07-29T12:58:26;5.30;;;2.55;;
7783;SDS011;19359;51.402;6.778;2022-07-29T13:01:04;2.90;;;1.90;;
7783;SDS011;19359;51.402;6.778;2022-07-29T13:03:43;5.03;;;1.92;;
7783;SDS011;19359;51.402;6.778;2022-07-29T13:08:58;11.07;;;4.18;;
7783;SDS011;19359;51.402;6.778;2022-07-29T13:11:31;5.28;;;1.90;;
7783;SDS011;19359;51.402;6.778;2022-07-29T13:13:59;5.95;;;1.67;;
7783;SDS011;19359;51.402;6.778;2022-07-29T13:16:26;3.90;;;2.17;;
7783;SDS011;19359;51.402;6.778;2022-07-29T13:19:03;4.50;;;2.05;;
7783;SDS011;19359;51.402;6.778;2022-07-29T13:21:31;8.18;;;2.00;;
7783;SDS011;19359;51.402;6.778;2022-07-29T13:23:58;10.23;;;2.13;;
7783;SDS011;19359;51.402;6.778;2022-07-29T13:26:25;4.35;;;2.22;;
7783;SDS011;19359;51.402;6.778;2022-07-29T13:28:54;3.50;;;2.47;;
7783;SDS011;19359;51.402;6.778;2022-07-29T13:31:21;6.05;;;2.35;;
7783;SDS011;19359;51.402;6.778;2022-07-29T13:33:48;7.75;;;2.75;;
7783;SDS011;19359;51.402;6.778;2022-07-29T13:36:14;7.88;;;2.25;;
7783;SDS011;19359;51.402;6.778;2022-07-29T13:38:41;5.32;;;3.15;;
7783;SDS011;19359;51.402;6.778;2022-07-29T13:41:08;4.47;;;2.08;;
7783;SDS011;19359;51.402;6.778;2022-07-29T13:43:35;6.93;;;1.92;;
7783;SDS011;19359;51.402;6.778;2022-07-29T13:46:03;5.15;;;2.97;;
7783;SDS011;19359;51.402;6.778;2022-07-29T13:48:30;5.30;;;2.17;;
7783;SDS011;19359;51.402;6.778;2022-07-29T13:50:56;5.38;;;2.78;;
7783;SDS011;19359;51.402;6.778;2022-07-29T13:53:23;4.63;;;2.65;;
7783;SDS011;19359;51.402;6.778;2022-07-29T13:55:50;11.75;;;2.58;;
7783;SDS011;19359;51.402;6.778;2022-07-29T13:58:17;6.38;;;2.05;;
7783;SDS011;19359;51.402;6.778;2022-07-29T14:00:43;3.15;;;1.90;;
7783;SDS011;19359;51.402;6.778;2022-07-29T14:03:12;2.80;;;2.60;;
7783;SDS011;19359;51.402;6.778;2022-07-29T14:05:39;8.90;;;3.08;;
7783;SDS011;19359;51.402;6.778;2022-07-29T14:08:06;5.07;;;2.05;;
7783;SDS011;19359;51.402;6.778;2022-07-29T14:10:33;2.80;;;2.20;;
7783;SDS011;19359;51.402;6.778;2022-07-29T14:12:59;5.20;;;2.53;;
7783;SDS011;19359;51.402;6.778;2022-07-29T14:15:26;6.30;;;1.63;;
7783;SDS011;19359;51.402;6.778;2022-07-29T14:17:53;5.10;;;2.92;;
7783;SDS011;19359;51.402;6.778;2022-07-29T14:20:21;7.03;;;2.65;;
7783;SDS011;19359;51.402;6.778;2022-07-29T14:22:48;5.80;;;1.60;;
7783;SDS011;19359;51.402;6.778;2022-07-29T14:25:15;2.90;;;1.67;;
7783;SDS011;19359;51.402;6.778;2022-07-29T14:27:42;6.55;;;2.40;;
7783;SDS011;19359;51.402;6.778;2022-07-29T14:30:09;5.57;;;2.10;;
7783;SDS011;19359;51.402;6.778;2022-07-29T14:32:36;4.75;;;1.55;;
7783;SDS011;19359;51.402;6.778;2022-07-29T14:35:03;5.13;;;2.22;;
7783;SDS011;19359;51.402;6.778;2022-07-29T14:37:32;3.90;;;2.28;;
7783;SDS011;19359;51.402;6.778;2022-07-29T14:40:00;14.00;;;2.22;;
7783;SDS011;19359;51.402;6.778;2022-07-29T14:42:28;5.40;;;1.15;;
7783;SDS011;19359;51.402;6.778;2022-07-29T14:44:56;3.22;;;1.50;;
7783;SDS011;19359;51.402;6.778;2022-07-29T14:47:22;6.18;;;1.70;;
7783;SDS011;19359;51.402;6.778;2022-07-29T14:49:49;5.28;;;1.90;;
7783;SDS011;19359;51.402;6.778;2022-07-29T14:52:16;3.78;;;1.67;;
7783;SDS011;19359;51.402;6.778;2022-07-29T14:54:44;3.45;;;1.42;;
7783;SDS011;19359;51.402;6.778;2022-07-29T14:57:11;6.75;;;1.38;;
7783;SDS011;19359;51.402;6.778;2022-07-29T14:59:38;5.70;;;1.50;;
7783;SDS011;19359;51.402;6.778;2022-07-29T15:02:04;7.20;;;2.03;;
7783;SDS011;19359;51.402;6.778;2022-07-29T15:04:31;2.92;;;1.13;;
7783;SDS011;19359;51.402;6.778;2022-07-29T15:06:58;5.30;;;1.42;;
7783;SDS011;19359;51.402;6.778;2022-07-29T15:09:25;3.33;;;1.30;;
7783;SDS011;19359;51.402;6.778;2022-07-29T15:11:53;6.25;;;1.95;;
7783;SDS011;19359;51.402;6.778;2022-07-29T15:14:20;5.38;;;1.63;;
7783;SDS011;19359;51.402;6.778;2022-07-29T15:16:46;4.40;;;1.80;;
7783;SDS011;19359;51.402;6.778;2022-07-29T15:19:13;5.40;;;1.77;;
7783;SDS011;19359;51.402;6.778;2022-07-29T15:21:40;6.07;;;1.73;;
7783;SDS011;19359;51.402;6.778;2022-07-29T15:24:07;6.43;;;2.35;;
7783;SDS011;19359;51.402;6.778;2022-07-29T15:26:34;5.60;;;1.77;;
7783;SDS011;19359;51.402;6.778;2022-07-29T15:29:02;7.10;;;1.60;;
7783;SDS011;19359;51.402;6.778;2022-07-29T15:31:29;4.10;;;1.60;;
7783;SDS011;19359;51.402;6.778;2022-07-29T15:33:56;5.72;;;1.65;;
7783;SDS011;19359;51.402;6.778;2022-07-29T15:36:22;6.72;;;1.80;;
7783;SDS011;19359;51.402;6.778;2022-07-29T15:38:51;3.00;;;1.60;;